Time;durP1;ratioP1;P1;durP2;ratioP2;P2;SDS_P1;SDS_P2;PMS_P1;PMS_P2;Temp;Humidity;BMP_temperature;BMP_pressure;BME280_temperature;BME280_humidity;BME280_pressure;Samples;Min_cycle;Max_cycle;Signal;HPM_P1;HPM_P2
2022/09/11 00:01:34;;;;;;;174.65;25.45;;;11.40;99.90;;;;;;5030865;28;20063;-57
2022/09/11 00:04:01;;;;;;;93.38;22.75;;;11.30;99.90;;;;;;5048992;28;20482;-57
2022/09/11 00:06:27;;;;;;;193.80;27.75;;;11.30;99.90;;;;;;5048770;28;20095;-57
2022/09/11 00:08:59;;;;;;;119.93;25.10;;;11.30;99.90;;;;;;5049120;28;20081;-57
2022/09/11 00:11:26;;;;;;;119.38;24.23;;;11.30;99.90;;;;;;5030995;28;20124;-57
2022/09/11 00:13:53;;;;;;;165.57;23.98;;;11.30;99.90;;;;;;5049058;28;20044;-57
2022/09/11 00:16:27;;;;;;;174.63;22.70;;;11.20;99.90;;;;;;5030705;28;20120;-57
2022/09/11 00:18:55;;;;;;;61.03;17.67;;;11.20;99.90;;;;;;5049118;28;20376;-58
2022/09/11 00:21:21;;;;;;;112.82;21.23;;;11.20;99.90;;;;;;5049127;28;20049;-57
2022/09/11 00:23:50;;;;;;;173.25;22.77;;;11.20;99.90;;;;;;5048733;28;20041;-58
2022/09/11 00:26:17;;;;;;;71.40;17.63;;;11.30;99.90;;;;;;5030725;28;20044;-58
2022/09/11 00:28:44;;;;;;;118.05;19.33;;;11.10;99.90;;;;;;5048283;28;20036;-57
2022/09/11 00:31:13;;;;;;;74.93;21.20;;;11.20;99.90;;;;;;5047249;28;20372;-57
2022/09/11 00:33:39;;;;;;;69.10;19.15;;;11.00;99.90;;;;;;5047395;28;20612;-57
2022/09/11 00:36:11;;;;;;;48.30;17.23;;;10.90;99.90;;;;;;5048274;28;20095;-57
2022/09/11 00:38:37;;;;;;;40.30;18.08;;;10.90;99.90;;;;;;5047904;28;20125;-58
2022/09/11 00:41:06;;;;;;;44.45;18.48;;;10.90;99.90;;;;;;5047012;28;20825;-57
2022/09/11 00:44:04;;;;;;;65.38;24.23;;;10.80;99.90;;;;;;5048398;28;20086;-57
2022/09/11 00:46:36;;;;;;;69.07;24.85;;;10.90;99.90;;;;;;5048741;28;20123;-57
2022/09/11 00:49:13;;;;;;;74.63;25.70;;;10.80;99.90;;;;;;5048865;28;20444;-57
2022/09/11 00:51:40;;;;;;;79.53;24.88;;;10.60;99.90;;;;;;5048726;28;20049;-58
2022/09/11 00:54:11;;;;;;;126.60;24.70;;;11.50;99.90;;;;;;5048242;28;20487;-57
2022/09/11 00:56:39;;;;;;;209.73;28.48;;;10.80;99.90;;;;;;5048016;28;20037;-58
2022/09/11 00:59:06;;;;;;;162.27;24.90;;;11.30;99.90;;;;;;5030791;28;20057;-58
2022/09/11 01:01:32;;;;;;;80.15;21.40;;;10.90;99.90;;;;;;5047389;28;20045;-57
2022/09/11 01:04:02;;;;;;;68.43;21.92;;;10.90;99.90;;;;;;5030916;28;20116;-57
2022/09/11 01:06:28;;;;;;;77.63;21.13;;;10.80;99.90;;;;;;5048060;28;20068;-57
2022/09/11 01:08:54;;;;;;;62.17;20.92;;;11.60;99.90;;;;;;5048370;28;20495;-58
2022/09/11 01:11:44;;;;;;;54.28;21.63;;;10.80;99.90;;;;;;5048219;28;20088;-58
2022/09/11 01:14:13;;;;;;;53.92;21.08;;;10.80;99.90;;;;;;5048396;28;20456;-57
2022/09/11 01:16:48;;;;;;;72.65;20.88;;;10.70;99.90;;;;;;5029625;28;20049;-58
2022/09/11 01:19:31;;;;;;;43.92;16.80;;;10.80;99.90;;;;;;5029725;28;20051;-58
2022/09/11 01:21:57;;;;;;;56.25;20.23;;;10.80;99.90;;;;;;5029392;28;20053;-57
2022/09/11 01:24:28;;;;;;;48.15;18.30;;;10.80;99.90;;;;;;5029452;28;20049;-57
2022/09/11 01:27:03;;;;;;;70.90;21.10;;;10.90;99.90;;;;;;5029343;28;20128;-58
2022/09/11 01:29:49;;;;;;;52.70;19.05;;;10.90;99.90;;;;;;5047481;28;20060;-58
2022/09/11 01:32:22;;;;;;;48.83;19.90;;;11.00;99.90;;;;;;5047314;28;20044;-58
2022/09/11 01:35:21;;;;;;;52.00;18.85;;;10.90;99.90;;;;;;5047223;28;20040;-58
2022/09/11 01:37:56;;;;;;;62.00;23.70;;;11.30;99.90;;;;;;5046858;28;20067;-58
2022/09/11 01:40:45;;;;;;;69.05;21.83;;;11.10;99.90;;;;;;5047311;28;20175;-58
2022/09/11 01:43:16;;;;;;;63.83;22.77;;;10.90;99.90;;;;;;5037902;28;20049;-58
2022/09/11 01:45:46;;;;;;;175.77;29.55;;;10.90;99.90;;;;;;5028693;28;20044;-58
2022/09/11 01:48:16;;;;;;;162.13;30.33;;;10.80;99.90;;;;;;5028999;28;20080;-58
2022/09/11 01:50:45;;;;;;;79.25;24.08;;;10.80;99.90;;;;;;5028798;28;20048;-57
2022/09/11 01:53:15;;;;;;;78.78;22.33;;;10.80;99.90;;;;;;5046857;28;20044;-58
2022/09/11 01:55:48;;;;;;;118.18;26.55;;;10.70;99.90;;;;;;5045489;28;20049;-58
2022/09/11 01:58:24;;;;;;;111.72;26.58;;;10.80;99.90;;;;;;5046908;28;20828;-58
2022/09/11 02:00:54;;;;;;;81.18;24.88;;;10.80;99.90;;;;;;5046863;28;20037;-57
2022/09/11 02:03:30;;;;;;;46.30;19.80;;;11.00;99.90;;;;;;5029282;28;20527;-58
2022/09/11 02:06:06;;;;;;;45.78;21.08;;;10.70;99.90;;;;;;5046709;28;20479;-58
2022/09/11 02:08:45;;;;;;;82.45;23.90;;;10.70;99.90;;;;;;5046859;28;20111;-58
2022/09/11 02:11:14;;;;;;;63.25;21.85;;;10.70;99.90;;;;;;5029317;28;20041;-58
2022/09/11 02:13:55;;;;;;;149.10;28.60;;;10.70;99.90;;;;;;5047394;28;20475;-58
2022/09/11 02:16:52;;;;;;;143.40;24.97;;;10.80;99.90;;;;;;5047487;28;20365;-58
2022/09/11 02:19:22;;;;;;;75.63;22.10;;;10.80;99.90;;;;;;5047225;28;20291;-57
2022/09/11 02:21:49;;;;;;;50.80;19.83;;;10.60;99.90;;;;;;5046656;28;20120;-58
2022/09/11 02:24:16;;;;;;;50.58;21.50;;;11.60;99.90;;;;;;5028641;28;20045;-57
2022/09/11 02:26:57;;;;;;;78.53;22.45;;;11.40;99.90;;;;;;5046729;28;20543;-58
2022/09/11 02:29:23;;;;;;;155.75;25.92;;;10.80;99.90;;;;;;5046755;28;20052;-58
2022/09/11 02:31:51;;;;;;;125.13;21.00;;;10.80;99.90;;;;;;5046151;28;20045;-58
2022/09/11 02:34:20;;;;;;;136.50;22.13;;;10.80;99.90;;;;;;5029072;28;20056;-58
2022/09/11 02:36:58;;;;;;;133.80;22.35;;;10.50;99.90;;;;;;5045963;28;20080;-58
2022/09/11 02:39:55;;;;;;;158.27;25.90;;;11.30;99.90;;;;;;5046344;28;20037;-57
2022/09/11 02:42:53;;;;;;;114.25;18.58;;;10.90;99.90;;;;;;5046764;28;20486;-57
2022/09/11 02:45:48;;;;;;;96.68;18.75;;;10.90;99.90;;;;;;5000523;28;20045;-58
2022/09/11 02:48:38;;;;;;;75.88;19.42;;;10.80;99.90;;;;;;5028599;28;20057;-58
2022/09/11 02:51:33;;;;;;;162.40;21.67;;;10.80;99.90;;;;;;5045027;28;20052;-58
2022/09/11 02:54:33;;;;;;;100.13;22.35;;;10.70;99.90;;;;;;5046551;28;20052;-58
2022/09/11 02:57:18;;;;;;;51.00;17.25;;;10.70;99.90;;;;;;5033043;28;20098;-57
2022/09/11 02:59:59;;;;;;;96.30;19.80;;;10.80;99.90;;;;;;5028603;28;20115;-58
2022/09/11 03:02:27;;;;;;;38.00;16.63;;;10.60;99.90;;;;;;5046515;28;20044;-58
2022/09/11 03:04:53;;;;;;;73.72;21.27;;;10.60;99.90;;;;;;5046277;28;20087;-58
2022/09/11 03:07:19;;;;;;;60.80;19.58;;;10.60;99.90;;;;;;5045880;28;20127;-58
2022/09/11 03:09:44;;;;;;;52.97;19.23;;;12.10;99.90;;;;;;5046278;28;20060;-57
2022/09/11 03:12:10;;;;;;;80.65;21.70;;;10.60;99.90;;;;;;5027835;28;20053;-59
2022/09/11 03:14:37;;;;;;;151.90;25.77;;;10.60;99.90;;;;;;5028564;28;20152;-57
2022/09/11 03:17:03;;;;;;;182.00;27.15;;;10.60;99.90;;;;;;5046053;28;20106;-58
2022/09/11 03:19:29;;;;;;;126.57;24.15;;;10.40;99.90;;;;;;5028496;28;20060;-57
2022/09/11 03:21:55;;;;;;;110.00;23.02;;;10.60;99.90;;;;;;5028132;28;20041;-58
2022/09/11 03:24:21;;;;;;;48.88;19.17;;;10.60;99.90;;;;;;5046165;28;20049;-57
2022/09/11 03:26:46;;;;;;;53.78;20.58;;;10.50;99.90;;;;;;5028924;28;20091;-58
2022/09/11 03:29:12;;;;;;;84.78;19.67;;;10.50;99.90;;;;;;5046137;28;20049;-58
2022/09/11 03:31:38;;;;;;;58.88;19.70;;;11.20;99.90;;;;;;5046081;28;20083;-58
2022/09/11 03:34:05;;;;;;;118.20;20.35;;;10.60;99.90;;;;;;5027917;28;20130;-58
2022/09/11 03:36:33;;;;;;;160.07;22.08;;;10.50;99.90;;;;;;5049791;28;20052;-57
2022/09/11 03:39:01;;;;;;;93.35;17.70;;;10.10;99.90;;;;;;5032070;28;20049;-57
2022/09/11 03:41:27;;;;;;;83.55;18.63;;;10.50;99.90;;;;;;5049834;28;20434;-57
2022/09/11 03:43:53;;;;;;;111.15;22.70;;;10.30;99.90;;;;;;5049282;28;20047;-57
2022/09/11 03:46:18;;;;;;;58.47;17.08;;;10.40;99.90;;;;;;5049411;28;20045;-57
2022/09/11 03:48:47;;;;;;;46.47;13.95;;;11.00;99.90;;;;;;5049679;28;20041;-57
2022/09/11 03:51:14;;;;;;;49.03;16.95;;;10.40;99.90;;;;;;5049128;28;20047;-57
2022/09/11 03:53:40;;;;;;;43.13;14.98;;;10.40;99.90;;;;;;5049330;28;20099;-57
2022/09/11 03:56:06;;;;;;;86.03;18.20;;;10.60;99.90;;;;;;5048681;28;20083;-57
2022/09/11 03:58:32;;;;;;;49.65;16.02;;;10.90;99.90;;;;;;5031714;28;20052;-58
2022/09/11 04:00:57;;;;;;;55.58;17.38;;;10.30;99.90;;;;;;5031068;28;20501;-58
2022/09/11 04:03:23;;;;;;;110.40;21.08;;;10.40;99.90;;;;;;5031668;28;20048;-57
2022/09/11 04:06:02;;;;;;;91.00;17.63;;;10.30;99.90;;;;;;5031304;28;20120;-58
2022/09/11 04:08:32;;;;;;;83.28;21.90;;;10.30;99.90;;;;;;5045077;28;20494;-57
2022/09/11 04:10:59;;;;;;;28.42;15.20;;;10.30;99.90;;;;;;5049469;28;20056;-58
2022/09/11 04:13:29;;;;;;;48.25;19.45;;;10.20;99.90;;;;;;5048976;28;20040;-57
2022/09/11 04:16:00;;;;;;;79.38;20.92;;;10.30;99.90;;;;;;5049694;28;20444;-57
2022/09/11 04:18:25;;;;;;;169.65;27.83;;;10.30;99.90;;;;;;5049583;28;20410;-58
2022/09/11 04:20:51;;;;;;;164.00;24.92;;;10.60;99.90;;;;;;5049675;28;20051;-57
2022/09/11 04:23:17;;;;;;;156.40;23.88;;;11.10;99.90;;;;;;5049238;28;20049;-57
2022/09/11 04:25:42;;;;;;;231.38;25.98;;;10.50;99.90;;;;;;5049379;28;20124;-58
2022/09/11 04:28:08;;;;;;;171.15;24.17;;;10.40;99.90;;;;;;5014492;28;20102;-57
2022/09/11 04:30:37;;;;;;;128.43;25.15;;;10.40;99.90;;;;;;5031082;28;20502;-57
2022/09/11 04:33:04;;;;;;;155.73;22.85;;;10.50;99.90;;;;;;5030821;28;20121;-57
2022/09/11 04:35:31;;;;;;;100.65;21.75;;;11.00;99.90;;;;;;5048967;28;20479;-57
2022/09/11 04:37:56;;;;;;;88.78;23.30;;;10.70;99.90;;;;;;5048814;28;20512;-58
2022/09/11 04:40:22;;;;;;;42.38;19.92;;;10.50;99.90;;;;;;5048736;28;20040;-57
2022/09/11 04:42:48;;;;;;;43.50;20.77;;;10.80;99.90;;;;;;5048490;28;20064;-58
2022/09/11 04:45:13;;;;;;;110.55;25.23;;;10.50;99.90;;;;;;5029735;28;20052;-58
2022/09/11 04:47:39;;;;;;;160.05;27.88;;;10.50;99.90;;;;;;5048285;28;20049;-57
2022/09/11 04:50:06;;;;;;;193.07;25.65;;;10.50;99.90;;;;;;5048378;28;20380;-58
2022/09/11 04:52:33;;;;;;;191.82;24.67;;;10.50;99.90;;;;;;5048637;28;20040;-57
2022/09/11 04:54:59;;;;;;;154.80;23.75;;;10.40;99.90;;;;;;5048521;28;20044;-58
2022/09/11 04:57:24;;;;;;;149.73;24.42;;;10.40;99.90;;;;;;5029896;28;20059;-58
2022/09/11 04:59:51;;;;;;;143.73;22.75;;;10.40;99.90;;;;;;5048141;28;20048;-58
2022/09/11 05:02:17;;;;;;;124.38;20.15;;;10.40;99.90;;;;;;5047993;28;20049;-57
2022/09/11 05:04:43;;;;;;;93.70;18.17;;;10.40;99.90;;;;;;5048934;28;20107;-58
2022/09/11 05:07:13;;;;;;;55.45;17.23;;;11.30;99.90;;;;;;5047822;28;20491;-58
2022/09/11 05:09:39;;;;;;;131.18;21.38;;;10.40;99.90;;;;;;5047055;28;20056;-58
2022/09/11 05:12:04;;;;;;;80.15;17.70;;;10.40;99.90;;;;;;5048008;28;20548;-58
2022/09/11 05:14:34;;;;;;;93.80;19.17;;;10.40;99.90;;;;;;5048509;28;20053;-57
2022/09/11 05:17:00;;;;;;;155.75;21.58;;;10.70;99.90;;;;;;5030074;28;20512;-57
2022/09/11 05:19:26;;;;;;;142.43;21.33;;;10.40;99.90;;;;;;5048182;28;20076;-57
2022/09/11 05:21:51;;;;;;;154.38;22.55;;;10.40;99.90;;;;;;5047767;28;20045;-58
2022/09/11 05:24:17;;;;;;;49.80;13.60;;;10.60;99.90;;;;;;5047612;28;20131;-57
2022/09/11 05:26:43;;;;;;;99.28;18.85;;;11.30;99.90;;;;;;5047742;28;20127;-58
2022/09/11 05:29:14;;;;;;;55.17;16.65;;;10.50;99.90;;;;;;5029608;28;20080;-58
2022/09/11 05:31:40;;;;;;;103.38;19.48;;;10.20;99.90;;;;;;5048010;28;20047;-58
2022/09/11 05:34:06;;;;;;;126.57;24.20;;;10.60;99.90;;;;;;5029487;28;20080;-58
2022/09/11 05:36:34;;;;;;;88.20;19.40;;;10.60;99.90;;;;;;5047685;28;20418;-58
2022/09/11 05:39:02;;;;;;;93.53;19.83;;;10.70;99.90;;;;;;5029491;28;20076;-57
2022/09/11 05:41:27;;;;;;;58.50;17.40;;;10.90;99.90;;;;;;5047028;28;20079;-57
2022/09/11 05:43:53;;;;;;;124.97;21.92;;;10.80;99.90;;;;;;5047385;28;20463;-57
2022/09/11 05:46:20;;;;;;;44.10;15.68;;;10.90;99.90;;;;;;5029188;28;20541;-58
2022/09/11 05:48:46;;;;;;;34.63;15.30;;;11.20;99.90;;;;;;5045886;28;20079;-58
2022/09/11 05:51:18;;;;;;;28.00;15.05;;;11.20;99.90;;;;;;5047255;28;20135;-58
2022/09/11 05:53:45;;;;;;;75.28;22.38;;;11.60;99.90;;;;;;5047493;28;20049;-58
2022/09/11 05:56:20;;;;;;;37.45;19.60;;;12.40;99.90;;;;;;5029124;28;20111;-58
2022/09/11 05:58:47;;;;;;;27.27;17.27;;;12.20;99.90;;;;;;5047546;28;20513;-59
2022/09/11 06:01:15;;;;;;;26.45;17.58;;;12.40;99.90;;;;;;5029674;28;20399;-58
2022/09/11 06:03:41;;;;;;;38.97;19.70;;;12.30;99.90;;;;;;5028970;28;20442;-58
2022/09/11 06:06:08;;;;;;;31.75;18.10;;;12.50;99.90;;;;;;5043596;28;20029;-58
2022/09/11 06:08:35;;;;;;;33.40;19.67;;;12.50;99.90;;;;;;5027533;28;20048;-59
2022/09/11 06:11:06;;;;;;;39.35;22.20;;;12.60;99.90;;;;;;5045758;28;20059;-58
2022/09/11 06:13:34;;;;;;;66.72;25.35;;;12.90;99.90;;;;;;5026479;28;20041;-58
2022/09/11 06:16:01;;;;;;;35.67;20.13;;;12.60;99.90;;;;;;5026160;28;20451;-58
2022/09/11 06:18:27;;;;;;;29.13;19.17;;;12.70;99.90;;;;;;5044106;28;20081;-58
2022/09/11 06:20:57;;;;;;;26.05;18.38;;;12.70;99.90;;;;;;5027227;28;20040;-58
2022/09/11 06:23:23;;;;;;;48.33;19.27;;;12.80;99.90;;;;;;5045272;28;20110;-58
2022/09/11 06:25:49;;;;;;;56.53;23.02;;;12.80;99.90;;;;;;5045381;28;20045;-60
2022/09/11 06:28:15;;;;;;;38.17;20.67;;;13.10;99.90;;;;;;5045130;28;20412;-58
2022/09/11 06:30:40;;;;;;;29.63;18.88;;;13.20;99.90;;;;;;5027673;28;20049;-58
2022/09/11 06:33:06;;;;;;;28.70;17.92;;;13.10;99.90;;;;;;5045857;28;20037;-58
2022/09/11 06:35:32;;;;;;;29.67;18.88;;;13.20;99.90;;;;;;5045857;28;20039;-58
2022/09/11 06:37:58;;;;;;;35.92;19.63;;;13.30;99.90;;;;;;5045407;28;21029;-58
2022/09/11 06:40:24;;;;;;;23.15;16.80;;;13.30;99.90;;;;;;5044228;28;20043;-58
2022/09/11 06:42:50;;;;;;;25.85;18.02;;;13.40;99.90;;;;;;5045640;28;20117;-58
2022/09/11 06:45:16;;;;;;;27.33;19.55;;;13.60;99.90;;;;;;5045531;28;20373;-58
2022/09/11 06:47:43;;;;;;;38.25;24.73;;;13.60;99.90;;;;;;5027874;28;20052;-58
2022/09/11 06:50:10;;;;;;;34.25;23.30;;;13.80;99.90;;;;;;5045502;28;20037;-58
2022/09/11 06:52:36;;;;;;;36.95;25.08;;;14.00;99.90;;;;;;5045660;28;20518;-58
2022/09/11 06:55:03;;;;;;;35.63;25.27;;;13.90;99.90;;;;;;5027153;28;20102;-57
2022/09/11 06:57:29;;;;;;;28.70;22.75;;;14.10;99.90;;;;;;5045446;28;20049;-57
2022/09/11 06:59:56;;;;;;;43.58;27.38;;;14.30;99.90;;;;;;5045543;28;20039;-58
2022/09/11 07:02:22;;;;;;;40.90;25.33;;;14.40;99.90;;;;;;5045365;28;20049;-57
2022/09/11 07:04:48;;;;;;;35.90;23.23;;;14.50;99.90;;;;;;5027045;28;20041;-58
2022/09/11 07:07:14;;;;;;;33.70;24.67;;;14.60;99.90;;;;;;5043455;28;20067;-58
2022/09/11 07:09:39;;;;;;;31.30;23.67;;;14.70;99.90;;;;;;5024667;28;20052;-60
2022/09/11 07:12:05;;;;;;;32.78;24.73;;;14.80;99.90;;;;;;5045624;28;20079;-58
2022/09/11 07:14:31;;;;;;;34.95;25.73;;;14.90;99.90;;;;;;5045382;28;20045;-57
2022/09/11 07:16:57;;;;;;;30.60;23.88;;;15.00;99.90;;;;;;5024384;28;20053;-58
2022/09/11 07:19:24;;;;;;;37.15;25.85;;;14.90;99.90;;;;;;5024597;28;20037;-58
2022/09/11 07:21:50;;;;;;;43.55;26.85;;;15.10;99.90;;;;;;5045493;28;20076;-58
2022/09/11 07:24:17;;;;;;;37.67;25.15;;;15.40;99.90;;;;;;5045181;28;20068;-58
2022/09/11 07:26:42;;;;;;;29.50;24.20;;;15.30;99.90;;;;;;5044867;28;20095;-58
2022/09/11 07:29:09;;;;;;;35.78;26.67;;;15.80;99.90;;;;;;5045485;28;20041;-58
2022/09/11 07:31:37;;;;;;;25.70;20.88;;;15.50;99.90;;;;;;5045654;28;20041;-58
2022/09/11 07:34:03;;;;;;;30.63;25.45;;;15.70;99.90;;;;;;5046119;28;20053;-58
2022/09/11 07:36:33;;;;;;;33.92;26.60;;;16.20;99.90;;;;;;5045469;28;20471;-57
2022/09/11 07:38:59;;;;;;;32.13;26.00;;;15.80;99.90;;;;;;5044700;28;20039;-58
2022/09/11 07:41:26;;;;;;;34.60;26.63;;;15.90;99.90;;;;;;5044618;28;20703;-57
2022/09/11 07:44:01;;;;;;;34.25;26.00;;;16.40;99.90;;;;;;5045175;28;20056;-57
2022/09/11 07:46:28;;;;;;;33.10;25.40;;;16.30;99.90;;;;;;5028128;28;20045;-57
2022/09/11 07:48:57;;;;;;;32.63;25.75;;;16.50;99.90;;;;;;5046224;28;20454;-59
2022/09/11 07:51:25;;;;;;;30.60;26.13;;;16.80;99.90;;;;;;5011600;28;20041;-56
2022/09/11 07:53:53;;;;;;;27.50;20.52;;;17.10;99.90;;;;;;5045317;28;20817;-57
2022/09/11 07:56:24;;;;;;;24.95;21.92;;;17.10;99.90;;;;;;5044440;28;20581;-56
2022/09/11 07:58:52;;;;;;;25.30;22.63;;;17.10;99.90;;;;;;5045336;28;20068;-56
2022/09/11 08:01:20;;;;;;;25.75;20.83;;;17.40;99.90;;;;;;5044125;28;20041;-56
2022/09/11 08:03:46;;;;;;;24.38;20.50;;;17.20;99.90;;;;;;5027623;28;20052;-57
2022/09/11 08:06:17;;;;;;;24.33;19.40;;;17.30;99.90;;;;;;5045687;28;20041;-57
2022/09/11 08:08:44;;;;;;;26.55;20.70;;;17.50;99.90;;;;;;5045655;28;20045;-57
2022/09/11 08:11:16;;;;;;;29.48;26.38;;;17.60;99.90;;;;;;5028258;28;20116;-57
2022/09/11 08:13:42;;;;;;;;;;;17.70;99.90;;;;;;5045406;28;20045;-58
2022/09/11 08:16:08;;;;;;;28.80;25.77;;;18.00;99.90;;;;;;5028509;28;19943;-57
2022/09/11 08:18:34;;;;;;;30.25;27.10;;;18.50;99.90;;;;;;5027895;28;20056;-57
2022/09/11 08:21:07;;;;;;;28.85;25.75;;;18.80;99.90;;;;;;5047873;28;20049;-57
2022/09/11 08:23:33;;;;;;;20.42;16.92;;;19.10;99.90;;;;;;5049199;28;20084;-57
2022/09/11 08:26:20;;;;;;;19.20;17.33;;;19.20;99.90;;;;;;5049456;28;20060;-57
2022/09/11 08:28:49;;;;;;;22.58;19.17;;;19.30;99.90;;;;;;5030835;28;20044;-58
2022/09/11 08:31:15;;;;;;;19.92;17.88;;;19.50;99.90;;;;;;5049496;28;20080;-57
2022/09/11 08:33:41;;;;;;;17.13;14.20;;;19.70;99.90;;;;;;5047677;28;20045;-58
2022/09/11 08:36:09;;;;;;;15.48;13.88;;;19.90;99.90;;;;;;5048734;28;20124;-57
2022/09/11 08:38:36;;;;;;;15.75;13.63;;;20.10;99.90;;;;;;5048863;28;20605;-58
2022/09/11 08:41:16;;;;;;;20.65;18.30;;;20.40;99.90;;;;;;5049063;28;20041;-57
2022/09/11 08:43:52;;;;;;;13.38;11.95;;;20.50;99.90;;;;;;5048776;28;20509;-57
2022/09/11 08:46:22;;;;;;;9.77;7.43;;;20.60;99.90;;;;;;5049693;28;20144;-57
2022/09/11 08:49:11;;;;;;;9.68;7.65;;;21.10;99.90;;;;;;5049067;28;20132;-58
2022/09/11 08:51:39;;;;;;;10.35;8.30;;;21.50;99.90;;;;;;5030871;28;20499;-57
2022/09/11 08:54:06;;;;;;;9.00;8.10;;;21.40;99.90;;;;;;5048822;28;20407;-57
2022/09/11 08:56:35;;;;;;;10.27;6.53;;;21.50;99.90;;;;;;5049216;28;20132;-57
2022/09/11 08:59:17;;;;;;;12.65;7.60;;;22.90;99.90;;;;;;5049591;28;20052;-57
2022/09/11 09:01:48;;;;;;;11.55;9.30;;;24.10;99.90;;;;;;5031520;28;20556;-57
2022/09/11 09:04:47;;;;;;;7.43;4.60;;;24.30;99.90;;;;;;5031207;28;20045;-58
2022/09/11 09:07:42;;;;;;;10.93;4.25;;;26.30;99.90;;;;;;5048933;28;20511;-58
2022/09/11 09:10:26;;;;;;;5.50;4.70;;;26.70;96.90;;;;;;5029057;28;20053;-58
2022/09/11 09:13:07;;;;;;;7.97;5.85;;;27.80;97.40;;;;;;5028056;28;20052;-58
2022/09/11 09:15:51;;;;;;;7.43;4.63;;;27.90;95.90;;;;;;5011491;28;20045;-57
2022/09/11 09:18:36;;;;;;;5.90;4.60;;;27.90;93.90;;;;;;5027532;28;20053;-58
2022/09/11 09:21:05;;;;;;;6.80;4.60;;;27.70;94.40;;;;;;5029402;28;20037;-57
2022/09/11 09:23:43;;;;;;;5.72;4.10;;;27.90;94.30;;;;;;5028837;28;20050;-56
2022/09/11 09:26:17;;;;;;;4.50;1.90;;;28.20;93.20;;;;;;5010560;28;20055;-57
2022/09/11 09:28:53;;;;;;;3.70;1.70;;;28.70;90.10;;;;;;5010463;28;20095;-59
2022/09/11 09:31:21;;;;;;;2.30;0.98;;;28.90;89.00;;;;;;5028378;28;20056;-58
2022/09/11 09:33:51;;;;;;;4.30;1.70;;;28.80;88.80;;;;;;5028885;28;20483;-57
2022/09/11 09:36:39;;;;;;;4.10;2.20;;;28.90;86.50;;;;;;5028947;28;20136;-57
2022/09/11 09:39:13;;;;;;;4.30;1.92;;;29.10;87.40;;;;;;4994025;28;20057;-58
2022/09/11 09:41:42;;;;;;;4.50;2.22;;;28.40;87.60;;;;;;5010284;28;20045;-57
2022/09/11 09:44:28;;;;;;;4.60;2.15;;;27.30;88.50;;;;;;5028617;28;20053;-58
2022/09/11 09:46:55;;;;;;;4.05;2.00;;;26.10;88.90;;;;;;5028289;28;20136;-57
2022/09/11 09:49:28;;;;;;;4.80;2.10;;;25.20;91.30;;;;;;5027951;28;20045;-57
2022/09/11 09:51:57;;;;;;;3.72;2.45;;;24.40;92.40;;;;;;5010309;28;20049;-57
2022/09/11 09:54:27;;;;;;;3.65;2.15;;;23.80;93.60;;;;;;5028166;28;20052;-57
2022/09/11 09:57:01;;;;;;;5.22;1.55;;;23.40;95.60;;;;;;5027791;28;20041;-57
2022/09/11 10:00:11;;;;;;;6.88;1.25;;;23.30;96.50;;;;;;5027875;28;20041;-57
2022/09/11 10:02:40;;;;;;;5.20;1.30;;;23.70;95.60;;;;;;5009900;28;20063;-57
2022/09/11 10:05:45;;;;;;;6.07;1.25;;;24.20;94.50;;;;;;5025952;28;20049;-57
2022/09/11 10:08:34;;;;;;;2.72;0.70;;;24.60;93.00;;;;;;4951536;28;20098;-57
2022/09/11 10:11:09;;;;;;;3.55;0.82;;;25.40;92.70;;;;;;4965884;28;20090;-57
2022/09/11 10:13:50;;;;;;;5.10;1.00;;;25.70;90.00;;;;;;5021403;28;20483;-57
2022/09/11 10:16:24;;;;;;;5.50;0.90;;;25.90;88.50;;;;;;5046974;28;20897;-57
2022/09/11 10:18:52;;;;;;;4.78;1.20;;;25.80;88.70;;;;;;5028811;28;20056;-57
2022/09/11 10:21:22;;;;;;;2.42;1.17;;;25.70;89.00;;;;;;5029380;28;20122;-57
2022/09/11 10:23:56;;;;;;;4.40;1.35;;;25.50;88.90;;;;;;5046921;28;20048;-57
2022/09/11 10:26:36;;;;;;;4.50;0.82;;;25.30;88.10;;;;;;5028983;28;20357;-57
2022/09/11 10:29:39;;;;;;;3.88;0.73;;;25.00;90.20;;;;;;5047549;28;20041;-57
2022/09/11 10:32:05;;;;;;;2.60;0.68;;;24.50;89.70;;;;;;5045692;28;20096;-57
2022/09/11 10:34:36;;;;;;;3.33;0.80;;;24.40;90.40;;;;;;5029989;28;20084;-57
2022/09/11 10:37:07;;;;;;;2.30;0.68;;;24.30;89.60;;;;;;5047746;28;20059;-57
2022/09/11 10:39:36;;;;;;;3.58;1.10;;;24.20;89.60;;;;;;5029861;28;20426;-56
2022/09/11 10:42:28;;;;;;;3.38;0.90;;;23.90;89.90;;;;;;5028966;28;20045;-56
2022/09/11 10:45:04;;;;;;;2.17;0.65;;;23.60;92.60;;;;;;5046316;28;20084;-57
2022/09/11 10:47:31;;;;;;;2.45;0.73;;;23.30;91.90;;;;;;5046702;28;20065;-57
2022/09/11 10:50:29;;;;;;;3.58;1.05;;;23.10;92.50;;;;;;5028262;28;20140;-57
2022/09/11 10:53:04;;;;;;;2.03;0.70;;;23.00;92.70;;;;;;4996097;28;20110;-56
2022/09/11 10:55:43;;;;;;;3.30;0.60;;;22.90;92.50;;;;;;5046875;28;20045;-56
2022/09/11 10:58:21;;;;;;;3.50;0.73;;;22.80;93.20;;;;;;5028098;28;20053;-57
2022/09/11 11:00:48;;;;;;;4.72;0.93;;;22.80;93.40;;;;;;5046081;28;20047;-57
2022/09/11 11:03:20;;;;;;;3.28;0.90;;;22.60;93.30;;;;;;5028184;28;20140;-57
2022/09/11 11:05:51;;;;;;;4.30;0.88;;;22.50;94.60;;;;;;5046283;28;20719;-57
2022/09/11 11:08:17;;;;;;;;;;;22.40;95.00;;;;;;5046918;28;20115;-58
2022/09/11 11:11:17;;;;;;;2.60;0.90;;;22.20;95.00;;;;;;5046860;28;20385;-57
2022/09/11 11:14:07;;;;;;;4.15;0.98;;;22.10;95.70;;;;;;5023562;28;20453;-57
2022/09/11 11:16:32;;;;;;;4.03;1.38;;;22.10;96.10;;;;;;5046521;28;20049;-57
2022/09/11 11:19:10;;;;;;;5.32;1.48;;;22.10;95.50;;;;;;5028157;28;20045;-57
2022/09/11 11:21:57;;;;;;;3.00;0.80;;;22.30;95.30;;;;;;5045742;28;20058;-56
2022/09/11 11:24:56;;;;;;;4.90;1.20;;;22.50;94.70;;;;;;5046307;28;20124;-59
2022/09/11 11:27:48;;;;;;;8.27;1.40;;;22.80;94.70;;;;;;5044984;28;20072;-57
2022/09/11 11:30:43;;;;;;;2.17;0.70;;;23.00;93.30;;;;;;5043596;28;20137;-57
2022/09/11 11:33:49;;;;;;;2.35;0.85;;;23.10;92.90;;;;;;5027264;28;20056;-58
2022/09/11 11:36:33;;;;;;;3.83;1.00;;;22.90;93.40;;;;;;5025831;28;20045;-57
2022/09/11 11:39:22;;;;;;;2.72;0.93;;;22.60;92.50;;;;;;5045627;28;20045;-57
2022/09/11 11:42:08;;;;;;;2.35;0.90;;;22.30;93.10;;;;;;5028759;28;20065;-57
2022/09/11 11:44:53;;;;;;;3.30;1.20;;;22.00;94.50;;;;;;5046269;28;20045;-57
2022/09/11 11:47:25;;;;;;;3.15;1.02;;;21.70;95.70;;;;;;5028038;28;20049;-57
2022/09/11 11:50:09;;;;;;;2.38;0.65;;;21.50;95.60;;;;;;5046058;28;20080;-56
2022/09/11 11:52:50;;;;;;;4.25;0.90;;;21.30;95.80;;;;;;5046041;28;20051;-57
2022/09/11 11:55:26;;;;;;;2.75;0.98;;;21.10;96.30;;;;;;5046592;28;20045;-56
2022/09/11 11:58:14;;;;;;;3.00;0.85;;;21.00;97.50;;;;;;5049926;28;20041;-56
2022/09/11 12:00:45;;;;;;;2.80;0.80;;;20.80;98.20;;;;;;5049950;28;20044;-58
2022/09/11 12:03:22;;;;;;;3.63;1.10;;;20.70;99.10;;;;;;5049350;28;20565;-57
2022/09/11 12:05:48;;;;;;;3.70;2.42;;;20.40;99.90;;;;;;5049367;28;20139;-57
2022/09/11 12:08:15;;;;;;;4.15;2.15;;;20.30;99.90;;;;;;5049094;28;20052;-57
2022/09/11 12:11:00;;;;;;;6.55;3.13;;;20.10;99.90;;;;;;5049525;28;20135;-57
2022/09/11 12:13:33;;;;;;;8.77;2.67;;;19.80;99.90;;;;;;5048915;28;20402;-57
2022/09/11 12:16:19;;;;;;;3.13;2.03;;;19.70;99.90;;;;;;5047739;28;20041;-56
2022/09/11 12:19:18;;;;;;;17.13;2.80;;;19.50;99.90;;;;;;5030281;28;20044;-56
2022/09/11 12:21:49;;;;;;;18.00;4.70;;;19.20;99.90;;;;;;5030833;28;20037;-57
2022/09/11 12:24:17;;;;;;;11.35;5.32;;;18.80;99.90;;;;;;5009279;28;20111;-57
2022/09/11 12:26:43;;;;;;;6.78;4.05;;;18.30;99.90;;;;;;5049558;28;20047;-56
2022/09/11 12:29:13;;;;;;;7.03;4.30;;;18.00;99.90;;;;;;5048863;28;20046;-56
2022/09/11 12:31:48;;;;;;;10.15;6.18;;;17.90;99.90;;;;;;4331301;28;10000777;-56
2022/09/11 12:34:36;;;;;;;15.85;9.23;;;17.60;99.90;;;;;;5028041;28;20061;-56
2022/09/11 12:37:19;;;;;;;10.32;6.75;;;17.50;99.90;;;;;;4998820;28;20067;-56
2022/09/11 12:39:59;;;;;;;10.02;6.82;;;17.50;99.90;;;;;;5045087;28;20146;-57
2022/09/11 12:42:25;;;;;;;7.07;6.43;;;17.60;99.90;;;;;;5045253;28;20041;-57
2022/09/11 12:44:51;;;;;;;11.95;6.47;;;17.60;99.90;;;;;;5046287;28;20127;-56
2022/09/11 12:47:31;;;;;;;8.95;6.95;;;17.60;99.90;;;;;;5046148;28;20048;-56
2022/09/11 12:50:15;;;;;;;12.23;9.60;;;17.60;99.90;;;;;;5044148;28;20051;-56
2022/09/11 12:52:46;;;;;;;10.80;6.82;;;17.70;99.90;;;;;;5025562;28;20038;-56
2022/09/11 12:55:48;;;;;;;7.35;6.10;;;17.80;99.90;;;;;;5027197;28;20041;-56
2022/09/11 12:58:19;;;;;;;10.77;6.37;;;17.90;99.90;;;;;;5046513;28;20091;-57